createdAt,value
2023-01-17T00:01:59.589Z,2.20
2023-01-17T00:04:44.691Z,2.18
2023-01-17T00:07:32.283Z,2.17
2023-01-17T00:10:00.904Z,2.15
2023-01-17T00:12:30.852Z,2.14
2023-01-17T00:14:59.647Z,2.15
2023-01-17T00:17:28.571Z,2.14
2023-01-17T00:20:13.553Z,2.14
2023-01-17T00:22:58.609Z,2.13
2023-01-17T00:25:45.908Z,2.14
2023-01-17T00:28:12.498Z,2.13
2023-01-17T00:30:38.466Z,2.14
2023-01-17T00:33:04.369Z,2.14
2023-01-17T00:35:32.108Z,2.15
2023-01-17T00:38:06.195Z,2.16
2023-01-17T00:40:32.970Z,2.17
2023-01-17T00:43:17.519Z,2.19
2023-01-17T00:46:03.394Z,2.21
2023-01-17T00:48:48.447Z,2.24
2023-01-17T00:51:33.244Z,2.26
2023-01-17T00:54:19.034Z,2.28
2023-01-17T00:57:04.095Z,2.30
2023-01-17T00:59:48.967Z,2.33
2023-01-17T01:02:34.376Z,2.36
2023-01-17T01:05:19.419Z,2.38
2023-01-17T01:08:04.252Z,2.39
2023-01-17T01:10:49.489Z,2.43
2023-01-17T01:13:34.491Z,2.45
2023-01-17T01:16:22.197Z,2.47
2023-01-17T01:19:07.861Z,2.49
2023-01-17T01:21:52.778Z,2.51
2023-01-17T01:24:37.760Z,2.54
2023-01-17T01:27:22.267Z,2.54
2023-01-17T01:30:07.189Z,2.57
2023-01-17T01:32:54.899Z,2.59
2023-01-17T01:35:22.239Z,2.61
2023-01-17T01:37:49.340Z,2.62
2023-01-17T01:40:19.851Z,2.64
2023-01-17T01:42:53.713Z,2.66
2023-01-17T01:45:23.286Z,2.68
2023-01-17T01:47:52.606Z,2.69
2023-01-17T01:50:21.463Z,2.70
2023-01-17T01:52:54.022Z,2.71
2023-01-17T01:55:25.431Z,2.72
2023-01-17T01:57:59.667Z,2.74
2023-01-17T02:00:30.987Z,2.73
2023-01-17T02:03:00.990Z,2.75
2023-01-17T02:05:30.328Z,2.77
2023-01-17T02:08:03.782Z,2.78
2023-01-17T02:10:32.242Z,2.79
2023-01-17T02:12:59.750Z,2.79
2023-01-17T02:15:37.606Z,2.80
2023-01-17T02:18:16.629Z,2.81
2023-01-17T02:21:22.415Z,2.81
2023-01-17T02:24:15.545Z,2.81
2023-01-17T02:27:05.844Z,2.82
2023-01-17T02:30:19.918Z,2.82
2023-01-17T02:33:01.415Z,2.83
2023-01-17T02:35:36.233Z,2.84
2023-01-17T02:38:13.579Z,2.85
2023-01-17T02:40:44.333Z,2.85
2023-01-17T02:43:15.627Z,2.84
2023-01-17T02:45:43.873Z,2.85
2023-01-17T02:48:14.714Z,2.84
2023-01-17T02:51:04.646Z,2.85
2023-01-17T02:53:45.078Z,2.84
2023-01-17T02:56:25.711Z,2.85
2023-01-17T02:59:07.646Z,2.85
2023-01-17T03:01:45.184Z,2.85
2023-01-17T03:04:19.436Z,2.85
2023-01-17T03:06:53.842Z,2.85
2023-01-17T03:09:22.441Z,2.86
2023-01-17T03:11:50.204Z,2.87
2023-01-17T03:14:17.346Z,2.88
2023-01-17T03:16:44.854Z,2.89
2023-01-17T03:19:14.891Z,2.89
2023-01-17T03:21:42.181Z,2.89
2023-01-17T03:24:10.051Z,2.90
2023-01-17T03:26:37.310Z,2.89
2023-01-17T03:29:05.340Z,2.89
2023-01-17T03:31:32.352Z,2.88
2023-01-17T03:33:59.428Z,2.89
2023-01-17T03:36:26.518Z,2.87
2023-01-17T03:38:53.651Z,2.88
2023-01-17T03:41:20.983Z,2.86
2023-01-17T03:43:48.332Z,2.85
2023-01-17T03:46:23.589Z,2.85
2023-01-17T03:48:51.494Z,2.84
2023-01-17T03:51:19.141Z,2.84
2023-01-17T03:53:47.487Z,2.83
2023-01-17T03:56:14.846Z,2.83
2023-01-17T03:58:42.060Z,2.82
2023-01-17T04:01:09.182Z,2.82
2023-01-17T04:03:36.582Z,2.81
2023-01-17T04:06:03.584Z,2.80
2023-01-17T04:08:30.837Z,2.80
2023-01-17T04:10:57.975Z,2.80
2023-01-17T04:13:25.141Z,2.79
2023-01-17T04:15:52.763Z,2.79
2023-01-17T04:18:23.234Z,2.78
2023-01-17T04:20:50.898Z,2.78
2023-01-17T04:23:18.064Z,2.78
2023-01-17T04:25:45.611Z,2.79
2023-01-17T04:28:13.284Z,2.78
2023-01-17T04:30:40.647Z,2.77
2023-01-17T04:33:07.869Z,2.76
2023-01-17T04:35:36.159Z,2.75
2023-01-17T04:38:03.401Z,2.75
2023-01-17T04:40:30.824Z,2.73
2023-01-17T04:42:58.315Z,2.71
2023-01-17T04:45:25.337Z,2.71
2023-01-17T04:47:52.523Z,2.71
2023-01-17T04:50:19.825Z,2.71
2023-01-17T04:52:47.050Z,2.70
2023-01-17T04:55:14.163Z,2.70
2023-01-17T04:57:41.289Z,2.68
2023-01-17T05:00:10.393Z,2.69
2023-01-17T05:02:37.606Z,2.67
2023-01-17T05:05:04.775Z,2.66
2023-01-17T05:07:31.762Z,2.67
2023-01-17T05:10:01.071Z,2.68
2023-01-17T05:12:28.742Z,2.67
2023-01-17T05:14:55.986Z,2.67
2023-01-17T05:17:23.607Z,2.66
2023-01-17T05:19:51.861Z,2.66
2023-01-17T05:22:18.864Z,2.63
2023-01-17T05:24:47.516Z,2.61
2023-01-17T05:27:15.681Z,2.60
2023-01-17T05:29:42.658Z,2.58
2023-01-17T05:32:10.205Z,2.57
2023-01-17T05:34:37.388Z,2.55
2023-01-17T05:37:04.420Z,2.53
2023-01-17T05:39:32.404Z,2.52
2023-01-17T05:41:59.640Z,2.50
2023-01-17T05:44:27.799Z,2.48
2023-01-17T05:46:55.369Z,2.47
2023-01-17T05:49:22.693Z,2.45
2023-01-17T05:51:49.895Z,2.43
2023-01-17T05:54:17.253Z,2.42
2023-01-17T05:56:44.565Z,2.41
2023-01-17T05:59:14.122Z,2.39
2023-01-17T06:01:41.897Z,2.36
2023-01-17T06:04:09.054Z,2.34
2023-01-17T06:06:36.017Z,2.31
2023-01-17T06:09:03.120Z,2.28
2023-01-17T06:11:30.655Z,2.25
2023-01-17T06:13:57.796Z,2.23
2023-01-17T06:16:25.931Z,2.19
2023-01-17T06:18:53.249Z,2.18
2023-01-17T06:21:20.827Z,2.16
2023-01-17T06:23:47.933Z,2.14
2023-01-17T06:26:15.072Z,2.12
2023-01-17T06:28:42.314Z,2.10
2023-01-17T06:31:10.840Z,2.08
2023-01-17T06:33:38.214Z,2.06
2023-01-17T06:36:06.468Z,2.05
2023-01-17T06:38:33.618Z,2.03
2023-01-17T06:41:04.905Z,2.02
2023-01-17T06:43:33.779Z,2.01
2023-01-17T06:46:01.906Z,2.01
2023-01-17T06:48:29.067Z,2.00
2023-01-17T06:50:56.131Z,1.99
2023-01-17T06:53:23.402Z,1.98
2023-01-17T06:55:50.642Z,1.98
2023-01-17T06:58:17.655Z,2.00
2023-01-17T07:00:45.068Z,2.01
2023-01-17T07:03:21.122Z,2.02
2023-01-17T07:05:49.239Z,2.04
2023-01-17T07:08:17.518Z,2.10
2023-01-17T07:10:45.647Z,2.19
2023-01-17T07:13:13.213Z,2.29
2023-01-17T07:15:40.475Z,2.41
2023-01-17T07:18:08.128Z,2.53
2023-01-17T07:20:35.397Z,2.66
2023-01-17T07:23:02.642Z,2.78
2023-01-17T07:25:29.625Z,2.94
2023-01-17T07:27:58.035Z,3.09
2023-01-17T07:30:25.036Z,3.19
2023-01-17T07:32:55.385Z,3.33
2023-01-17T07:35:22.825Z,3.49
2023-01-17T07:37:53.742Z,3.68
2023-01-17T07:40:22.535Z,3.88
2023-01-17T07:42:50.009Z,4.06
2023-01-17T07:45:18.955Z,4.23
2023-01-17T07:47:45.980Z,4.42
2023-01-17T07:50:14.959Z,4.57
2023-01-17T07:52:42.615Z,4.70
2023-01-17T07:55:12.289Z,4.84
2023-01-17T07:57:39.531Z,4.97
2023-01-17T08:00:09.379Z,5.03
2023-01-17T08:02:39.269Z,5.08
2023-01-17T08:05:07.312Z,5.16
2023-01-17T08:07:34.479Z,5.20
2023-01-17T08:10:01.640Z,5.18
2023-01-17T08:12:29.648Z,5.16
2023-01-17T08:14:56.745Z,5.14
2023-01-17T08:17:24.291Z,5.18
2023-01-17T08:19:52.575Z,5.23
2023-01-17T08:22:19.653Z,5.25
2023-01-17T08:24:46.767Z,5.29
2023-01-17T08:27:13.995Z,5.31
2023-01-17T08:29:46.970Z,5.24
2023-01-17T08:32:14.149Z,5.21
2023-01-17T08:34:41.365Z,5.26
2023-01-17T08:37:08.380Z,5.32
2023-01-17T08:39:35.534Z,5.34
2023-01-17T08:42:02.645Z,5.36
2023-01-17T08:44:30.056Z,5.32
2023-01-17T08:46:57.223Z,5.31
2023-01-17T08:49:25.804Z,5.26
2023-01-17T08:51:52.983Z,5.20
2023-01-17T08:54:20.033Z,5.15
2023-01-17T08:56:48.019Z,5.11
2023-01-17T08:59:15.393Z,5.08
2023-01-17T09:01:42.621Z,5.05
2023-01-17T09:04:10.126Z,5.00
2023-01-17T09:06:39.394Z,4.91
2023-01-17T09:09:08.494Z,4.83
2023-01-17T09:11:36.448Z,4.72
2023-01-17T09:14:03.439Z,4.61
2023-01-17T09:16:31.467Z,4.49
2023-01-17T09:19:00.004Z,4.44
2023-01-17T09:21:27.766Z,4.36
2023-01-17T09:23:55.602Z,4.29
2023-01-17T09:26:25.094Z,4.20
2023-01-17T09:28:52.545Z,4.15
2023-01-17T09:31:21.500Z,4.13
2023-01-17T09:33:48.771Z,4.09
2023-01-17T09:36:15.816Z,4.04
2023-01-17T09:38:43.253Z,3.97
2023-01-17T09:41:27.821Z,3.90
2023-01-17T09:44:02.797Z,3.86
2023-01-17T09:46:33.672Z,3.84
2023-01-17T09:49:08.783Z,3.81
2023-01-17T09:51:36.104Z,3.80
2023-01-17T09:54:03.667Z,3.78
2023-01-17T09:56:36.601Z,3.75
2023-01-17T09:59:20.503Z,3.72
2023-01-17T10:01:56.548Z,3.69
2023-01-17T10:04:40.827Z,3.70
2023-01-17T10:07:20.846Z,3.70
2023-01-17T10:10:05.236Z,3.71
2023-01-17T10:12:41.037Z,3.68
2023-01-17T10:15:25.874Z,3.66
2023-01-17T10:17:59.461Z,3.62
2023-01-17T10:20:41.425Z,3.60
2023-01-17T10:23:25.628Z,3.57
2023-01-17T10:25:55.947Z,3.55
2023-01-17T10:28:27.369Z,3.55
2023-01-17T10:30:57.396Z,3.54
2023-01-17T10:33:30.555Z,3.54
2023-01-17T10:36:00.213Z,3.56
2023-01-17T10:38:32.897Z,3.58
2023-01-17T10:41:05.855Z,3.63
2023-01-17T10:43:41.920Z,3.65
2023-01-17T10:46:20.620Z,3.69
2023-01-17T10:48:51.257Z,3.70
2023-01-17T10:51:49.883Z,3.72
2023-01-17T10:54:29.661Z,3.75
2023-01-17T10:56:56.986Z,3.77
2023-01-17T10:59:31.795Z,3.79
2023-01-17T11:01:59.237Z,3.81
2023-01-17T11:04:32.215Z,3.81
2023-01-17T11:07:15.428Z,3.82
2023-01-17T11:09:44.940Z,3.83
2023-01-17T11:12:24.513Z,3.84
2023-01-17T11:15:23.483Z,3.87
2023-01-17T11:17:53.403Z,3.87
2023-01-17T11:20:24.622Z,3.86
2023-01-17T11:23:06.732Z,3.85
2023-01-17T11:25:35.505Z,3.84
2023-01-17T11:28:05.618Z,3.83
2023-01-17T11:30:32.973Z,3.82
2023-01-17T11:33:03.315Z,3.83
2023-01-17T11:35:32.631Z,3.84
2023-01-17T11:38:18.825Z,3.86
2023-01-17T11:40:47.568Z,3.88
2023-01-17T11:43:27.885Z,3.91
2023-01-17T11:46:08.127Z,3.92
2023-01-17T11:48:39.984Z,3.93
2023-01-17T11:51:20.740Z,3.95
2023-01-17T11:53:49.624Z,3.98
2023-01-17T11:56:24.658Z,4.00
2023-01-17T11:58:52.386Z,4.02
2023-01-17T12:01:34.556Z,4.04
2023-01-17T12:04:29.935Z,4.05
2023-01-17T12:07:17.129Z,4.03
2023-01-17T12:09:51.859Z,4.03
2023-01-17T12:12:48.928Z,4.03
2023-01-17T12:15:30.961Z,4.02
2023-01-17T12:18:11.784Z,4.01
2023-01-17T12:20:48.576Z,3.99
2023-01-17T12:23:31.892Z,3.98
2023-01-17T12:26:13.374Z,3.98
2023-01-17T12:28:59.258Z,3.98
2023-01-17T12:31:35.277Z,3.97
2023-01-17T12:34:14.887Z,3.97
2023-01-17T12:36:49.648Z,3.96
2023-01-17T12:39:18.706Z,3.94
2023-01-17T12:41:58.414Z,3.93
2023-01-17T12:44:39.687Z,3.95
2023-01-17T12:47:07.969Z,3.98
2023-01-17T12:49:42.014Z,3.99
2023-01-17T12:52:16.580Z,4.02
2023-01-17T12:54:50.051Z,4.05
2023-01-17T12:57:20.459Z,4.09
2023-01-17T12:59:53.557Z,4.13
2023-01-17T13:02:33.068Z,4.15
2023-01-17T13:05:06.625Z,4.17
2023-01-17T13:07:43.827Z,4.18
2023-01-17T13:10:22.654Z,4.19
2023-01-17T13:12:52.439Z,4.22
2023-01-17T13:15:24.852Z,4.24
2023-01-17T13:17:57.892Z,4.31
2023-01-17T13:20:32.598Z,4.41
2023-01-17T13:23:09.233Z,4.52
2023-01-17T13:25:42.473Z,4.63
2023-01-17T13:28:30.195Z,4.73
2023-01-17T13:31:20.879Z,4.81
2023-01-17T13:34:18.836Z,4.89
2023-01-17T13:37:04.716Z,4.97
2023-01-17T13:39:50.405Z,5.01
2023-01-17T13:42:26.195Z,5.06
2023-01-17T13:44:53.585Z,5.09
2023-01-17T13:47:40.550Z,5.14
2023-01-17T13:50:29.552Z,5.15
2023-01-17T13:52:58.089Z,5.15
2023-01-17T13:55:53.659Z,5.15
2023-01-17T13:59:03.323Z,5.15
2023-01-17T14:05:06.544Z,5.15
2023-01-17T14:07:36.422Z,5.09
2023-01-17T14:10:17.126Z,5.06
2023-01-17T14:12:44.705Z,5.05
2023-01-17T14:15:22.852Z,5.01
2023-01-17T14:17:57.070Z,4.97
2023-01-17T14:20:49.995Z,4.97
2023-01-17T14:23:36.031Z,4.94
2023-01-17T14:26:20.992Z,4.89
2023-01-17T14:28:48.369Z,4.85
2023-01-17T14:31:19.379Z,4.81
2023-01-17T14:33:46.715Z,4.79
2023-01-17T14:36:26.211Z,4.75
2023-01-17T14:38:53.841Z,4.70
2023-01-17T14:41:25.018Z,4.63
2023-01-17T14:43:53.343Z,4.55
2023-01-17T14:46:26.636Z,4.47
2023-01-17T14:49:01.052Z,4.39
2023-01-17T14:51:28.663Z,4.31
2023-01-17T14:53:57.839Z,4.24
2023-01-17T14:56:25.800Z,4.16
2023-01-17T14:59:07.443Z,4.10
2023-01-17T15:01:36.483Z,4.02
2023-01-17T15:04:03.763Z,3.95
2023-01-17T15:06:39.924Z,3.88
2023-01-17T15:09:14.011Z,3.82
2023-01-17T15:11:42.443Z,3.77
2023-01-17T15:14:14.274Z,3.73
2023-01-17T15:16:41.595Z,3.69
2023-01-17T15:19:15.635Z,3.65
2023-01-17T15:21:44.290Z,3.60
2023-01-17T15:24:20.875Z,3.57
2023-01-17T15:26:47.112Z,3.53
2023-01-17T15:29:21.017Z,3.49
2023-01-17T15:31:51.315Z,3.45
2023-01-17T15:34:28.063Z,3.42
2023-01-17T15:36:58.066Z,3.38
2023-01-17T15:39:30.375Z,3.34
2023-01-17T15:41:58.682Z,3.30
2023-01-17T15:44:47.958Z,3.26
2023-01-17T15:47:30.670Z,3.22
2023-01-17T15:49:59.821Z,3.17
2023-01-17T15:52:26.882Z,3.13
2023-01-17T15:54:55.222Z,3.09
2023-01-17T15:57:29.325Z,3.07
2023-01-17T15:59:59.680Z,3.04
2023-01-17T16:02:42.715Z,3.01
2023-01-17T16:05:43.892Z,2.98
2023-01-17T16:08:38.736Z,2.95
2023-01-17T16:11:07.658Z,2.91
2023-01-17T16:13:37.237Z,2.87
2023-01-17T16:16:23.184Z,2.84
2023-01-17T16:18:59.499Z,2.81
2023-01-17T16:21:29.503Z,2.79
2023-01-17T16:23:57.694Z,2.76
2023-01-17T16:26:25.595Z,2.73
2023-01-17T16:28:53.183Z,2.71
2023-01-17T16:31:21.106Z,2.69
2023-01-17T16:33:49.661Z,2.68
2023-01-17T16:36:21.442Z,2.66
2023-01-17T16:38:52.516Z,2.64
2023-01-17T16:41:19.865Z,2.62
2023-01-17T16:43:48.460Z,2.59
2023-01-17T16:46:16.095Z,2.58
2023-01-17T16:48:43.254Z,2.56
2023-01-17T16:51:11.250Z,2.54
2023-01-17T16:53:38.841Z,2.54
2023-01-17T16:56:13.777Z,2.54
2023-01-17T16:58:41.769Z,2.52
2023-01-17T17:01:15.582Z,2.50
2023-01-17T17:03:42.948Z,2.48
2023-01-17T17:06:10.447Z,2.46
2023-01-17T17:08:38.470Z,2.43
2023-01-17T17:11:14.998Z,2.42
2023-01-17T17:13:43.003Z,2.39
2023-01-17T17:16:15.933Z,2.37
2023-01-17T17:18:43.284Z,2.33
2023-01-17T17:21:10.700Z,2.31
2023-01-17T17:23:37.770Z,2.28
2023-01-17T17:26:05.758Z,2.24
2023-01-17T17:28:32.774Z,2.21
2023-01-17T17:31:11.947Z,2.18
2023-01-17T17:33:39.269Z,2.15
2023-01-17T17:36:10.241Z,2.12
2023-01-17T17:38:38.209Z,2.08
2023-01-17T17:41:10.603Z,2.05
2023-01-17T17:43:43.883Z,2.00
2023-01-17T17:46:11.233Z,1.96
2023-01-17T17:48:38.823Z,1.93
2023-01-17T17:51:06.903Z,1.90
2023-01-17T17:53:34.924Z,1.87
2023-01-17T17:56:07.624Z,1.83
2023-01-17T17:58:36.288Z,1.80
2023-01-17T18:01:07.723Z,1.77
2023-01-17T18:03:35.608Z,1.75
2023-01-17T18:06:09.590Z,1.73
2023-01-17T18:08:37.887Z,1.72
2023-01-17T18:11:07.584Z,1.69
2023-01-17T18:13:35.369Z,1.67
2023-01-17T18:16:07.962Z,1.65
2023-01-17T18:18:35.573Z,1.64
2023-01-17T18:21:13.564Z,1.62
2023-01-17T18:23:42.442Z,1.61
2023-01-17T18:26:16.703Z,1.60
2023-01-17T18:28:43.912Z,1.59
2023-01-17T18:31:11.515Z,1.56
2023-01-17T18:33:48.542Z,1.55
2023-01-17T18:36:15.042Z,1.53
2023-01-17T18:38:44.140Z,1.50
2023-01-17T18:41:21.660Z,1.49
2023-01-17T18:43:50.007Z,1.48
2023-01-17T18:46:18.316Z,1.48
2023-01-17T18:48:46.031Z,1.47
2023-01-17T18:51:16.066Z,1.46
2023-01-17T18:53:45.207Z,1.44
2023-01-17T18:56:14.490Z,1.42
2023-01-17T18:58:43.192Z,1.40
2023-01-17T19:01:10.171Z,1.37
2023-01-17T19:03:38.232Z,1.35
2023-01-17T19:06:06.890Z,1.35
2023-01-17T19:08:35.429Z,1.34
2023-01-17T19:11:04.389Z,1.33
2023-01-17T19:13:32.612Z,1.32
2023-01-17T19:16:04.614Z,1.32
2023-01-17T19:18:32.054Z,1.33
2023-01-17T19:21:04.174Z,1.33
2023-01-17T19:23:31.382Z,1.32
2023-01-17T19:25:58.473Z,1.31
2023-01-17T19:28:25.728Z,1.30
2023-01-17T19:31:02.992Z,1.29
2023-01-17T19:33:29.964Z,1.27
2023-01-17T19:36:01.316Z,1.25
2023-01-17T19:38:28.806Z,1.21
2023-01-17T19:40:56.018Z,1.17
2023-01-17T19:43:23.458Z,1.14
2023-01-17T19:46:01.176Z,1.11
2023-01-17T19:48:29.446Z,1.06
2023-01-17T19:50:56.933Z,1.01
2023-01-17T19:53:24.605Z,0.97
2023-01-17T19:55:51.682Z,0.96
2023-01-17T19:58:18.766Z,0.97
2023-01-17T20:00:46.871Z,0.96
2023-01-17T20:03:14.649Z,0.95
2023-01-17T20:05:41.879Z,0.94
2023-01-17T20:08:10.070Z,0.92
2023-01-17T20:10:37.600Z,0.90
2023-01-17T20:13:05.255Z,0.87
2023-01-17T20:15:32.623Z,0.84
2023-01-17T20:17:59.911Z,0.82
2023-01-17T20:20:26.911Z,0.81
2023-01-17T20:22:54.123Z,0.80
2023-01-17T20:25:21.481Z,0.79
2023-01-17T20:27:48.459Z,0.76
2023-01-17T20:30:20.492Z,0.73
2023-01-17T20:32:48.160Z,0.69
2023-01-17T20:35:16.105Z,0.65
2023-01-17T20:37:43.550Z,0.62
2023-01-17T20:40:13.320Z,0.60
2023-01-17T20:42:40.389Z,0.58
2023-01-17T20:45:09.682Z,0.55
2023-01-17T20:47:37.121Z,0.52
2023-01-17T20:50:05.617Z,0.50
2023-01-17T20:52:32.714Z,0.48
2023-01-17T20:55:00.062Z,0.46
2023-01-17T20:57:27.429Z,0.45
2023-01-17T20:59:54.648Z,0.43
2023-01-17T21:02:22.004Z,0.42
2023-01-17T21:04:49.887Z,0.41
2023-01-17T21:07:17.034Z,0.40
2023-01-17T21:09:44.072Z,0.40
2023-01-17T21:12:11.207Z,0.39
2023-01-17T21:14:40.830Z,0.38
2023-01-17T21:17:07.936Z,0.38
2023-01-17T21:19:34.942Z,0.38
2023-01-17T21:22:02.406Z,0.37
2023-01-17T21:24:29.659Z,0.37
2023-01-17T21:26:57.028Z,0.37
2023-01-17T21:29:29.120Z,0.36
2023-01-17T21:31:56.556Z,0.37
2023-01-17T21:34:25.429Z,0.37
2023-01-17T21:36:52.703Z,0.38
2023-01-17T21:39:21.154Z,0.39
2023-01-17T21:41:50.967Z,0.37
2023-01-17T21:44:20.642Z,0.30
2023-01-17T21:46:48.711Z,0.19
2023-01-17T21:49:17.307Z,0.12
2023-01-17T21:52:03.575Z,0.07
2023-01-17T21:54:49.551Z,0.07
2023-01-17T21:57:36.607Z,0.07
2023-01-17T22:00:04.159Z,0.09
2023-01-17T22:02:39.055Z,0.11
2023-01-17T22:05:08.192Z,0.13
2023-01-17T22:07:35.499Z,0.13
2023-01-17T22:10:02.697Z,0.14
2023-01-17T22:12:29.830Z,0.13
2023-01-17T22:14:56.902Z,0.13
2023-01-17T22:17:24.097Z,0.13
2023-01-17T22:19:51.171Z,0.15
2023-01-17T22:22:18.510Z,0.16
2023-01-17T22:24:45.976Z,0.18
2023-01-17T22:27:13.835Z,0.22
2023-01-17T22:29:40.968Z,0.25
2023-01-17T22:32:08.490Z,0.31
2023-01-17T22:34:35.883Z,0.36
2023-01-17T22:37:04.766Z,0.39
2023-01-17T22:39:32.081Z,0.43
2023-01-17T22:41:59.550Z,0.46
2023-01-17T22:44:26.745Z,0.48
2023-01-17T22:46:54.037Z,0.51
2023-01-17T22:49:23.498Z,0.53
2023-01-17T22:51:50.509Z,0.56
2023-01-17T22:54:18.020Z,0.59
2023-01-17T22:56:45.195Z,0.63
2023-01-17T22:59:12.558Z,0.69
2023-01-17T23:01:40.937Z,0.76
2023-01-17T23:04:08.462Z,0.82
2023-01-17T23:06:37.396Z,0.88
2023-01-17T23:09:08.499Z,0.94
2023-01-17T23:11:41.309Z,0.99
2023-01-17T23:14:09.943Z,1.03
2023-01-17T23:16:54.887Z,1.08
2023-01-17T23:19:25.030Z,1.12
2023-01-17T23:22:10.889Z,1.16
2023-01-17T23:24:39.688Z,1.21
2023-01-17T23:27:24.396Z,1.25
2023-01-17T23:29:51.626Z,1.27
2023-01-17T23:32:18.685Z,1.30
2023-01-17T23:34:47.985Z,1.32
2023-01-17T23:37:15.036Z,1.32
2023-01-17T23:39:42.212Z,1.33
2023-01-17T23:42:27.122Z,1.32
2023-01-17T23:44:54.444Z,1.31
2023-01-17T23:47:21.520Z,1.30
2023-01-17T23:49:49.358Z,1.31
2023-01-17T23:52:16.610Z,1.30
2023-01-17T23:54:43.562Z,1.31
2023-01-17T23:57:10.686Z,1.30
2023-01-17T23:59:38.110Z,1.30
